Time;durP1;ratioP1;P1;durP2;ratioP2;P2;SDS_P1;SDS_P2;PMS_P1;PMS_P2;Temp;Humidity;BMP_temperature;BMP_pressure;BME280_temperature;BME280_humidity;BME280_pressure;Samples;Min_cycle;Max_cycle;Signal;HPM_P1;HPM_P2
2021/10/29 00:02:24;;;;;;;13.75;5.15;;;13.20;99.90;;;;;;5040475;28;20039;-63
2021/10/29 00:04:51;;;;;;;16.00;5.65;;;13.10;99.90;;;;;;5043263;28;20049;-61
2021/10/29 00:07:18;;;;;;;15.43;5.90;;;13.20;99.90;;;;;;5039208;28;20071;-62
2021/10/29 00:09:44;;;;;;;22.58;5.38;;;13.10;99.90;;;;;;5032911;28;20386;-62
2021/10/29 00:12:12;;;;;;;14.63;5.43;;;13.10;99.90;;;;;;5045827;28;20044;-64
2021/10/29 00:14:39;;;;;;;21.00;5.47;;;13.10;99.90;;;;;;5036058;28;20088;-62
2021/10/29 00:17:05;;;;;;;12.90;5.53;;;13.10;99.90;;;;;;5033482;28;20438;-62
2021/10/29 00:19:31;;;;;;;13.07;5.32;;;13.20;99.90;;;;;;5036579;28;20025;-62
2021/10/29 00:21:57;;;;;;;16.70;5.63;;;13.20;99.90;;;;;;5038680;28;20044;-64
2021/10/29 00:24:22;;;;;;;16.98;6.03;;;13.20;99.90;;;;;;5032531;28;20033;-63
2021/10/29 00:26:48;;;;;;;17.90;5.80;;;13.20;99.90;;;;;;5038382;28;20029;-62
2021/10/29 00:29:14;;;;;;;17.50;5.95;;;13.20;99.90;;;;;;5049316;28;20063;-62
2021/10/29 00:31:40;;;;;;;15.13;5.55;;;13.20;99.90;;;;;;5037274;28;20463;-62
2021/10/29 00:34:06;;;;;;;17.20;5.13;;;13.30;99.90;;;;;;5042840;28;20029;-62
2021/10/29 00:36:31;;;;;;;12.85;5.53;;;13.30;99.90;;;;;;5040416;28;20476;-62
2021/10/29 00:38:57;;;;;;;13.38;5.05;;;13.30;99.90;;;;;;5033223;28;20029;-63
2021/10/29 00:41:23;;;;;;;16.15;5.47;;;13.30;99.90;;;;;;5037106;28;20036;-64
2021/10/29 00:43:48;;;;;;;15.82;5.28;;;13.40;99.90;;;;;;5035670;28;20508;-63
2021/10/29 00:46:14;;;;;;;16.08;4.70;;;13.40;99.90;;;;;;5036090;28;20033;-64
2021/10/29 00:48:40;;;;;;;16.42;4.93;;;13.40;99.90;;;;;;5049121;28;20013;-62
2021/10/29 00:51:06;;;;;;;14.15;5.50;;;13.40;99.90;;;;;;5047286;28;20159;-61
2021/10/29 00:53:33;;;;;;;14.68;5.57;;;13.50;99.90;;;;;;5045531;28;20044;-63
2021/10/29 00:55:59;;;;;;;12.48;5.03;;;13.50;99.90;;;;;;5047252;28;20096;-63
2021/10/29 00:58:25;;;;;;;15.15;5.40;;;13.60;99.90;;;;;;5048295;28;20513;-62
2021/10/29 01:00:50;;;;;;;18.55;5.35;;;13.60;99.90;;;;;;5036686;28;20037;-63
2021/10/29 01:03:17;;;;;;;12.63;5.43;;;13.60;99.90;;;;;;5041506;28;20033;-63
2021/10/29 01:05:43;;;;;;;14.43;4.78;;;13.50;99.90;;;;;;5049323;28;20043;-62
2021/10/29 01:08:10;;;;;;;16.75;5.55;;;13.50;99.90;;;;;;5039831;28;20034;-63
2021/10/29 01:10:36;;;;;;;13.45;5.00;;;13.60;99.90;;;;;;5045591;28;20440;-64
2021/10/29 01:13:03;;;;;;;15.80;5.10;;;13.60;99.90;;;;;;5036075;28;20069;-62
2021/10/29 01:15:29;;;;;;;17.27;5.15;;;13.70;99.90;;;;;;5038354;28;20029;-61
2021/10/29 01:17:55;;;;;;;14.45;5.43;;;13.70;99.90;;;;;;5041022;28;20111;-62
2021/10/29 01:20:25;;;;;;;15.75;5.40;;;13.60;99.90;;;;;;5037622;28;20495;-64
2021/10/29 01:22:51;;;;;;;12.52;5.00;;;13.70;99.90;;;;;;5041032;28;20033;-62
2021/10/29 01:25:17;;;;;;;17.38;4.90;;;13.60;99.90;;;;;;5033652;28;20029;-62
2021/10/29 01:27:43;;;;;;;13.77;4.95;;;13.70;99.90;;;;;;5036419;28;20036;-63
2021/10/29 01:30:10;;;;;;;15.60;4.95;;;13.70;99.90;;;;;;5039859;28;20025;-62
2021/10/29 01:32:37;;;;;;;14.13;5.20;;;13.70;99.90;;;;;;5039295;28;20029;-64
2021/10/29 01:35:03;;;;;;;18.55;5.35;;;13.70;99.90;;;;;;5034821;28;20502;-63
2021/10/29 01:37:29;;;;;;;11.05;4.60;;;13.70;99.90;;;;;;5043301;28;20036;-62
2021/10/29 01:39:55;;;;;;;15.15;4.85;;;13.70;99.90;;;;;;5033164;28;20027;-63
2021/10/29 01:42:21;;;;;;;15.57;4.80;;;13.70;99.90;;;;;;5032568;28;20116;-63
2021/10/29 01:44:47;;;;;;;14.77;5.10;;;13.80;99.90;;;;;;5035642;28;20534;-62
2021/10/29 01:47:13;;;;;;;15.35;6.15;;;13.70;99.90;;;;;;5039162;28;20033;-62
2021/10/29 01:49:40;;;;;;;18.60;5.68;;;13.70;99.90;;;;;;5038827;28;20033;-63
2021/10/29 01:52:08;;;;;;;16.05;6.03;;;13.70;99.90;;;;;;5040790;28;20411;-62
2021/10/29 01:54:34;;;;;;;21.92;5.68;;;13.70;99.90;;;;;;5039203;28;20126;-63
2021/10/29 01:57:00;;;;;;;19.88;5.70;;;13.70;99.90;;;;;;5015670;28;20411;-65
2021/10/29 01:59:26;;;;;;;17.65;4.78;;;13.70;99.90;;;;;;5037312;28;20033;-63
2021/10/29 02:01:53;;;;;;;15.57;5.47;;;13.70;99.90;;;;;;5017804;28;20384;-62
2021/10/29 02:04:20;;;;;;;14.75;5.07;;;13.70;99.90;;;;;;5036762;28;20068;-63
2021/10/29 02:06:46;;;;;;;21.70;5.20;;;13.70;99.90;;;;;;5038030;28;20471;-61
2021/10/29 02:09:12;;;;;;;16.38;5.00;;;13.70;99.90;;;;;;5035153;28;20032;-63
2021/10/29 02:11:39;;;;;;;17.48;5.22;;;13.70;99.90;;;;;;5038816;28;20071;-64
2021/10/29 02:14:06;;;;;;;13.90;4.53;;;13.60;99.90;;;;;;5037900;28;20135;-62
2021/10/29 02:16:32;;;;;;;13.60;4.70;;;13.60;99.90;;;;;;5050678;28;20017;-62
2021/10/29 02:18:58;;;;;;;13.48;4.30;;;13.70;99.90;;;;;;5036238;28;20190;-64
2021/10/29 02:21:24;;;;;;;12.60;4.53;;;13.60;99.90;;;;;;5039020;28;20108;-63
2021/10/29 02:23:49;;;;;;;14.40;5.05;;;13.70;99.90;;;;;;5044310;28;20076;-64
2021/10/29 02:26:16;;;;;;;15.57;5.00;;;13.70;99.90;;;;;;5043109;28;20033;-63
2021/10/29 02:28:41;;;;;;;15.57;5.30;;;13.70;99.90;;;;;;5030303;28;20079;-62
2021/10/29 02:31:07;;;;;;;8.68;3.83;;;13.70;99.90;;;;;;5033350;28;20033;-63
2021/10/29 02:33:33;;;;;;;16.02;4.57;;;13.70;99.90;;;;;;5031002;28;20033;-62
2021/10/29 02:35:59;;;;;;;13.27;4.43;;;13.70;99.90;;;;;;5030446;28;20025;-61
2021/10/29 02:38:24;;;;;;;18.75;5.10;;;13.70;99.90;;;;;;5031411;28;20041;-62
2021/10/29 02:40:52;;;;;;;15.52;4.60;;;13.80;99.90;;;;;;5029665;28;20030;-62
2021/10/29 02:43:17;;;;;;;15.88;5.38;;;13.80;99.90;;;;;;5027501;28;20021;-61
2021/10/29 02:45:44;;;;;;;14.98;5.45;;;13.80;99.90;;;;;;5040839;28;20040;-62
2021/10/29 02:48:10;;;;;;;13.80;4.45;;;13.80;99.90;;;;;;5047668;28;20068;-63
2021/10/29 02:50:36;;;;;;;16.85;5.00;;;13.80;99.90;;;;;;5031688;28;20104;-63
2021/10/29 02:53:04;;;;;;;15.68;5.50;;;13.80;99.90;;;;;;5020191;28;20235;-62
2021/10/29 02:55:31;;;;;;;17.52;4.88;;;13.80;99.90;;;;;;5029843;28;20495;-63
2021/10/29 02:57:56;;;;;;;15.98;5.18;;;13.80;99.90;;;;;;5044314;28;20452;-62
2021/10/29 03:00:22;;;;;;;16.95;5.28;;;13.80;99.90;;;;;;5018233;28;20120;-62
2021/10/29 03:02:48;;;;;;;13.13;4.60;;;13.80;99.90;;;;;;5030601;28;20042;-64
2021/10/29 03:05:14;;;;;;;17.52;4.90;;;13.80;99.90;;;;;;5033958;28;20291;-61
2021/10/29 03:07:40;;;;;;;15.38;4.93;;;13.80;99.90;;;;;;5042727;28;20033;-63
2021/10/29 03:10:07;;;;;;;16.80;5.13;;;13.70;99.90;;;;;;5037739;28;20029;-62
2021/10/29 03:12:34;;;;;;;16.55;4.88;;;13.70;99.90;;;;;;5030983;28;20068;-62
2021/10/29 03:15:00;;;;;;;13.90;4.82;;;13.70;99.90;;;;;;5045904;28;20083;-61
2021/10/29 03:17:26;;;;;;;14.48;4.72;;;13.70;99.90;;;;;;5031067;28;20132;-61
2021/10/29 03:19:52;;;;;;;12.98;4.75;;;13.60;99.90;;;;;;5038420;28;20108;-62
2021/10/29 03:22:18;;;;;;;19.23;4.93;;;13.60;99.90;;;;;;5045398;28;20029;-63
2021/10/29 03:24:44;;;;;;;12.77;5.00;;;13.60;99.90;;;;;;5039480;28;20037;-62
2021/10/29 03:27:09;;;;;;;17.48;4.85;;;13.60;99.90;;;;;;5045133;28;20035;-62
2021/10/29 03:29:37;;;;;;;11.48;4.50;;;13.60;99.90;;;;;;5039507;28;20048;-62
2021/10/29 03:32:03;;;;;;;19.60;5.43;;;13.50;99.90;;;;;;5035076;28;20026;-63
2021/10/29 03:34:29;;;;;;;18.42;4.82;;;13.50;99.90;;;;;;5039591;28;20030;-62
2021/10/29 03:36:55;;;;;;;14.57;4.72;;;13.40;99.90;;;;;;5034349;28;20434;-62
2021/10/29 03:39:26;;;;;;;13.32;5.35;;;13.40;99.90;;;;;;5039980;28;20067;-62
2021/10/29 03:42:00;;;;;;;14.88;4.68;;;13.40;99.90;;;;;;5039447;28;20025;-63
2021/10/29 03:46:55;;;;;;;17.55;5.40;;;13.40;99.90;;;;;;5050050;28;20061;-62
2021/10/29 03:49:30;;;;;;;13.77;4.82;;;13.40;99.90;;;;;;5053001;28;20036;-62
2021/10/29 03:52:11;;;;;;;16.73;4.95;;;13.40;99.90;;;;;;5051353;28;20036;-62
2021/10/29 03:54:37;;;;;;;14.20;4.75;;;13.40;99.90;;;;;;5047530;28;20041;-64
2021/10/29 03:59:30;;;;;;;17.95;4.82;;;13.30;99.90;;;;;;5054797;28;20344;-62
2021/10/29 04:01:56;;;;;;;22.88;5.15;;;13.40;99.90;;;;;;5040355;28;20120;-61
2021/10/29 04:04:22;;;;;;;18.20;4.70;;;13.40;99.90;;;;;;5044242;28;20425;-61
2021/10/29 04:06:48;;;;;;;19.17;5.40;;;13.40;99.90;;;;;;5034367;28;20033;-63
2021/10/29 04:09:14;;;;;;;20.30;5.13;;;13.30;99.90;;;;;;5042650;28;20027;-61
2021/10/29 04:11:41;;;;;;;14.20;4.75;;;13.40;99.90;;;;;;5043278;28;20033;-62
2021/10/29 04:14:10;;;;;;;21.52;5.05;;;13.30;99.90;;;;;;5024622;28;20410;-62
2021/10/29 04:16:37;;;;;;;17.02;4.70;;;13.30;99.90;;;;;;5033579;28;20029;-64
2021/10/29 04:19:08;;;;;;;18.38;4.93;;;13.30;99.90;;;;;;5039080;28;20053;-62
2021/10/29 04:21:37;;;;;;;14.25;4.80;;;13.30;99.90;;;;;;5033892;28;20029;-61
2021/10/29 04:24:07;;;;;;;19.42;5.07;;;13.30;99.90;;;;;;5034948;28;20109;-61
2021/10/29 04:26:34;;;;;;;20.13;5.40;;;13.30;99.90;;;;;;5039980;28;20028;-61
2021/10/29 04:29:01;;;;;;;14.75;5.50;;;13.40;99.90;;;;;;5036881;28;20039;-63
2021/10/29 04:31:30;;;;;;;25.58;5.88;;;13.30;99.90;;;;;;5032226;28;20030;-61
2021/10/29 04:33:56;;;;;;;18.40;5.72;;;13.30;99.90;;;;;;5031969;28;20101;-62
2021/10/29 04:36:23;;;;;;;16.45;4.93;;;13.30;99.90;;;;;;5032762;28;20160;-64
2021/10/29 04:38:49;;;;;;;20.15;5.78;;;13.30;99.90;;;;;;5037177;28;20355;-60
2021/10/29 04:41:16;;;;;;;16.52;5.20;;;13.40;99.90;;;;;;5039784;28;20490;-62
2021/10/29 04:43:42;;;;;;;14.52;5.00;;;13.40;99.90;;;;;;5046213;28;20029;-61
2021/10/29 04:46:08;;;;;;;22.90;5.60;;;13.40;99.90;;;;;;5033648;28;20481;-62
2021/10/29 04:48:36;;;;;;;19.13;5.30;;;13.50;99.90;;;;;;5038456;28;20031;-61
2021/10/29 04:51:01;;;;;;;18.27;6.32;;;13.50;99.90;;;;;;5043685;28;20112;-61
2021/10/29 04:53:27;;;;;;;16.05;6.20;;;13.60;99.90;;;;;;5041995;28;20100;-63
2021/10/29 04:55:54;;;;;;;16.17;5.60;;;13.60;99.90;;;;;;5041140;28;20032;-63
2021/10/29 04:58:20;;;;;;;16.73;5.13;;;13.60;99.90;;;;;;5046333;28;20458;-63
2021/10/29 05:00:47;;;;;;;15.35;5.80;;;13.70;99.90;;;;;;5059102;28;20113;-62
2021/10/29 05:03:12;;;;;;;13.15;5.85;;;13.80;99.90;;;;;;5054684;28;20115;-62
2021/10/29 05:05:38;;;;;;;20.02;6.57;;;13.80;99.90;;;;;;5064223;28;20111;-63
2021/10/29 05:08:05;;;;;;;20.90;6.03;;;13.90;99.90;;;;;;5054532;28;20025;-62
2021/10/29 05:10:31;;;;;;;14.63;5.97;;;13.90;99.90;;;;;;5054196;28;20415;-62
2021/10/29 05:12:58;;;;;;;17.75;6.30;;;13.90;99.90;;;;;;5051984;28;20036;-61
2021/10/29 05:15:24;;;;;;;19.83;5.80;;;14.00;99.90;;;;;;5059021;28;20024;-62
2021/10/29 05:17:50;;;;;;;17.00;6.00;;;14.10;99.90;;;;;;5052011;28;20051;-62
2021/10/29 05:20:16;;;;;;;17.67;6.32;;;14.10;99.90;;;;;;5063981;28;20116;-62
2021/10/29 05:22:42;;;;;;;19.90;5.72;;;14.20;99.90;;;;;;5054975;28;20035;-63
2021/10/29 05:25:08;;;;;;;18.92;6.10;;;14.20;99.90;;;;;;5052738;28;20041;-62
2021/10/29 05:27:38;;;;;;;25.10;5.95;;;14.20;99.90;;;;;;5063956;28;20028;-63
2021/10/29 05:30:08;;;;;;;19.70;6.70;;;14.30;99.90;;;;;;5060081;28;20033;-61
2021/10/29 05:32:35;;;;;;;18.45;6.18;;;14.30;99.90;;;;;;5063049;28;20028;-63
2021/10/29 05:35:02;;;;;;;15.63;5.90;;;14.30;99.90;;;;;;5055235;28;20654;-64
2021/10/29 05:37:33;;;;;;;21.58;6.60;;;14.30;99.90;;;;;;5061892;28;20381;-62
2021/10/29 05:39:59;;;;;;;19.95;6.10;;;14.40;99.90;;;;;;5067874;28;20033;-61
2021/10/29 05:42:28;;;;;;;22.20;6.55;;;14.40;99.90;;;;;;5062655;28;20047;-62
2021/10/29 05:44:54;;;;;;;18.38;5.85;;;14.40;99.90;;;;;;5062862;28;20060;-63
2021/10/29 05:47:22;;;;;;;21.38;6.65;;;14.40;99.90;;;;;;5064384;28;20398;-63
2021/10/29 05:49:48;;;;;;;17.10;6.10;;;14.40;99.90;;;;;;5060679;28;20032;-61
2021/10/29 05:52:21;;;;;;;19.20;6.22;;;14.40;99.90;;;;;;5063919;28;20516;-62
2021/10/29 05:55:30;;;;;;;19.15;6.38;;;14.30;99.90;;;;;;5051439;28;20060;-62
2021/10/29 05:57:36;;;;;;;18.27;5.78;;;14.30;99.90;;;;;;5045458;28;20073;-63
2021/10/29 06:00:04;;;;;;;25.77;6.50;;;14.30;99.90;;;;;;5053832;28;20755;-62
2021/10/29 06:02:29;;;;;;;15.15;5.63;;;14.30;99.90;;;;;;5064892;28;20040;-62
2021/10/29 06:04:55;;;;;;;16.35;6.10;;;14.30;99.90;;;;;;5051739;28;20371;-62
2021/10/29 06:07:21;;;;;;;15.40;5.47;;;14.20;99.90;;;;;;5053674;28;20029;-62
2021/10/29 06:09:46;;;;;;;21.25;6.57;;;14.20;99.90;;;;;;5051161;28;20033;-62
2021/10/29 06:12:12;;;;;;;16.27;5.70;;;14.20;99.90;;;;;;5058052;28;20098;-63
2021/10/29 06:14:39;;;;;;;11.45;4.88;;;14.20;99.90;;;;;;5063078;28;20059;-63
2021/10/29 06:17:07;;;;;;;17.70;5.57;;;14.20;99.90;;;;;;5054391;28;20056;-61
2021/10/29 06:19:33;;;;;;;21.33;5.47;;;14.20;99.90;;;;;;5055892;28;20032;-63
2021/10/29 06:24:30;;;;;;;10.05;5.07;;;14.10;99.90;;;;;;5059547;28;20041;-64
2021/10/29 06:27:08;;;;;;;16.60;6.70;;;14.10;99.90;;;;;;5054546;28;20112;-62
2021/10/29 06:29:34;;;;;;;12.73;4.95;;;14.10;99.90;;;;;;5060018;28;20111;-62
2021/10/29 06:32:00;;;;;;;14.75;5.40;;;14.10;99.90;;;;;;5065538;28;20109;-61
2021/10/29 06:34:26;;;;;;;12.90;4.93;;;14.00;99.90;;;;;;5055061;28;20028;-62
2021/10/29 06:36:52;;;;;;;18.17;5.53;;;14.00;99.90;;;;;;5061207;28;20060;-62
2021/10/29 06:39:19;;;;;;;14.70;5.30;;;14.00;99.90;;;;;;5042546;28;20028;-64
2021/10/29 06:41:45;;;;;;;18.13;9.07;;;13.90;99.90;;;;;;5053888;28;20055;-62
2021/10/29 06:46:49;;;;;;;10.68;4.80;;;13.90;99.90;;;;;;5050090;28;20033;-62
2021/10/29 06:49:19;;;;;;;17.48;5.55;;;13.90;99.90;;;;;;5051298;28;20047;-62
2021/10/29 06:52:08;;;;;;;20.50;5.72;;;13.90;99.90;;;;;;5061675;28;20556;-63
2021/10/29 07:40:17;;;;;;;19.58;5.10;;;13.60;99.90;;;;;;5043262;28;20036;-64
2021/10/29 07:42:55;;;;;;;16.15;5.15;;;13.60;99.90;;;;;;5042681;28;20109;-61
2021/10/29 07:45:23;;;;;;;12.95;4.00;;;13.60;99.90;;;;;;5028367;28;20044;-61
2021/10/29 07:47:50;;;;;;;11.93;4.13;;;13.60;99.90;;;;;;5035216;28;20029;-62
2021/10/29 07:50:18;;;;;;;11.80;4.28;;;13.50;99.90;;;;;;5045476;28;20032;-61
2021/10/29 07:52:45;;;;;;;17.60;5.15;;;13.50;99.90;;;;;;5049008;28;20025;-62
2021/10/29 07:55:14;;;;;;;13.88;4.68;;;13.50;99.90;;;;;;5048756;28;20532;-61
2021/10/29 07:57:41;;;;;;;11.52;4.15;;;13.50;99.90;;;;;;5046504;28;20052;-62
2021/10/29 08:00:09;;;;;;;10.52;3.70;;;13.60;99.90;;;;;;5048196;28;20096;-62
2021/10/29 08:02:35;;;;;;;14.15;4.03;;;13.60;99.90;;;;;;5038785;28;20114;-61
2021/10/29 08:05:01;;;;;;;13.45;4.00;;;13.60;99.90;;;;;;5048938;28;20044;-63
2021/10/29 08:07:28;;;;;;;14.55;3.80;;;13.70;99.90;;;;;;5049617;28;20036;-63
2021/10/29 08:09:53;;;;;;;9.82;3.45;;;13.70;99.90;;;;;;5044268;28;20041;-63
2021/10/29 08:12:19;;;;;;;11.27;3.83;;;13.70;99.90;;;;;;5041125;28;20033;-62
2021/10/29 08:14:52;;;;;;;10.35;3.97;;;13.70;99.90;;;;;;5041115;28;20052;-62
2021/10/29 08:17:19;;;;;;;14.05;4.25;;;13.70;99.90;;;;;;5045424;28;20475;-63
2021/10/29 08:19:46;;;;;;;10.95;4.25;;;13.70;99.90;;;;;;5044279;28;20108;-65
2021/10/29 08:22:13;;;;;;;16.58;3.55;;;13.60;99.90;;;;;;5038715;28;20120;-64
2021/10/29 08:24:40;;;;;;;15.45;5.03;;;13.60;99.90;;;;;;5040493;28;20072;-62
2021/10/29 08:27:07;;;;;;;8.35;3.40;;;13.50;99.90;;;;;;5050642;28;20029;-63
2021/10/29 08:29:33;;;;;;;10.95;3.67;;;13.50;99.90;;;;;;5048462;28;20118;-62
2021/10/29 08:32:00;;;;;;;7.70;3.75;;;13.50;99.90;;;;;;5032209;28;20033;-62
2021/10/29 08:34:26;;;;;;;9.75;3.30;;;13.50;99.90;;;;;;5038229;28;20033;-63
2021/10/29 08:37:00;;;;;;;9.77;3.53;;;13.50;99.90;;;;;;5045807;28;20049;-63
2021/10/29 08:39:29;;;;;;;10.85;3.35;;;13.50;99.90;;;;;;5039496;28;20036;-64
2021/10/29 08:42:00;;;;;;;17.58;6.18;;;13.50;99.90;;;;;;5044481;28;20090;-63
2021/10/29 08:44:30;;;;;;;7.43;2.97;;;13.40;99.90;;;;;;5044249;28;20079;-62
2021/10/29 08:47:01;;;;;;;9.10;3.78;;;13.50;99.90;;;;;;5040363;28;20025;-64
2021/10/29 08:49:32;;;;;;;17.52;5.95;;;13.50;99.90;;;;;;5040482;28;20494;-63
2021/10/29 08:52:00;;;;;;;11.75;3.38;;;13.50;99.90;;;;;;5046837;28;20029;-62
2021/10/29 08:54:26;;;;;;;9.05;3.15;;;13.50;99.90;;;;;;5044174;28;20700;-63
2021/10/29 08:56:53;;;;;;;10.07;3.72;;;13.60;99.90;;;;;;5033355;28;20048;-61
2021/10/29 08:59:25;;;;;;;13.52;3.40;;;13.60;99.90;;;;;;5053476;28;20053;-63
2021/10/29 09:01:59;;;;;;;17.45;4.63;;;13.60;99.90;;;;;;5052715;28;20449;-62
2021/10/29 09:07:10;;;;;;;7.63;3.55;;;13.70;99.90;;;;;;5063897;28;20119;-63
2021/10/29 09:09:58;;;;;;;8.75;3.28;;;13.90;99.90;;;;;;5064720;28;20029;-63
2021/10/29 09:32:54;;;;;;;12.35;5.90;;;14.50;99.90;;;;;;5061549;28;20043;-61
2021/10/29 09:35:23;;;;;;;11.75;4.85;;;14.50;99.90;;;;;;5063079;28;20024;-63
2021/10/29 09:38:01;;;;;;;13.45;5.53;;;14.50;99.90;;;;;;5060386;28;20467;-62
2021/10/29 09:40:39;;;;;;;17.02;4.95;;;14.50;99.90;;;;;;5052129;28;20040;-63
2021/10/29 09:43:18;;;;;;;15.80;5.05;;;14.60;99.90;;;;;;5062972;28;20497;-62
2021/10/29 09:45:49;;;;;;;14.88;4.97;;;14.60;99.90;;;;;;5060983;28;20233;-61
2021/10/29 09:48:20;;;;;;;13.63;4.80;;;14.70;99.90;;;;;;5055973;28;20394;-61
2021/10/29 09:50:58;;;;;;;18.98;5.03;;;14.70;99.90;;;;;;5066223;28;20060;-63
2021/10/29 09:56:15;;;;;;;18.63;4.60;;;14.80;99.90;;;;;;5066255;28;20037;-62
2021/10/29 09:58:42;;;;;;;13.65;4.70;;;14.80;99.90;;;;;;5034028;28;20041;-62
2021/10/29 10:01:09;;;;;;;15.25;4.97;;;14.70;99.90;;;;;;5038773;28;20068;-63
2021/10/29 10:03:37;;;;;;;14.32;4.97;;;14.70;99.90;;;;;;5018488;28;20482;-63
2021/10/29 10:06:05;;;;;;;15.88;4.95;;;14.70;99.90;;;;;;5036223;28;20105;-62
2021/10/29 10:08:32;;;;;;;13.02;4.95;;;14.70;99.90;;;;;;5044404;28;20029;-63
2021/10/29 10:10:59;;;;;;;18.55;5.20;;;14.70;99.90;;;;;;5034538;28;20037;-62
2021/10/29 10:13:26;;;;;;;14.77;5.05;;;14.80;99.90;;;;;;5031942;28;20033;-62
2021/10/29 10:15:55;;;;;;;14.82;4.88;;;14.90;99.90;;;;;;5031550;28;20039;-62
2021/10/29 10:18:22;;;;;;;22.42;5.20;;;14.90;99.90;;;;;;5038765;28;20040;-61
2021/10/29 10:20:52;;;;;;;17.08;5.32;;;15.00;99.90;;;;;;5040166;28;20415;-59
2021/10/29 10:23:24;;;;;;;18.80;7.00;;;15.10;99.90;;;;;;5037916;28;20039;-61
2021/10/29 10:31:11;;;;;;;14.07;5.00;;;15.30;99.90;;;;;;5037621;28;20040;-60
2021/10/29 10:45:21;;;;;;;17.35;4.78;;;15.40;99.90;;;;;;4957680;28;20039;-61
2021/10/29 10:47:52;;;;;;;21.27;5.13;;;15.40;99.90;;;;;;5031421;28;20037;-60
2021/10/29 10:50:25;;;;;;;19.83;5.43;;;15.40;99.90;;;;;;5044426;28;20033;-61
2021/10/29 10:55:23;;;;;;;14.27;4.60;;;15.30;99.90;;;;;;5032529;28;20061;-60
2021/10/29 10:58:02;;;;;;;18.90;6.05;;;15.20;99.90;;;;;;5039336;28;20076;-60
2021/10/29 11:00:49;;;;;;;13.45;4.28;;;15.20;99.90;;;;;;5060657;28;20098;-61
2021/10/29 11:03:45;;;;;;;19.92;4.80;;;15.30;99.90;;;;;;5059135;28;20040;-60
2021/10/29 11:06:52;;;;;;;14.00;4.43;;;15.20;99.90;;;;;;5056059;28;20124;-60
2021/10/29 11:12:40;;;;;;;14.50;4.13;;;15.20;99.90;;;;;;5053797;28;20047;-61
2021/10/29 11:15:19;;;;;;;19.63;3.70;;;15.20;99.90;;;;;;5053688;28;20092;-62
2021/10/29 11:17:56;;;;;;;15.15;3.78;;;15.20;99.90;;;;;;5057678;28;20039;-60
2021/10/29 11:20:53;;;;;;;12.50;3.67;;;15.20;99.90;;;;;;5063521;28;20025;-61
2021/10/29 11:23:33;;;;;;;12.55;3.45;;;15.20;99.90;;;;;;5053015;28;20044;-61
2021/10/29 11:26:20;;;;;;;14.73;4.25;;;15.20;99.90;;;;;;5064556;28;20031;-59
2021/10/29 11:28:50;;;;;;;13.50;3.20;;;15.20;99.90;;;;;;5054517;28;20068;-61
2021/10/29 11:31:26;;;;;;;14.48;3.10;;;15.20;99.90;;;;;;5056607;28;20037;-60
2021/10/29 11:33:54;;;;;;;10.10;2.60;;;15.30;99.90;;;;;;5057111;28;20086;-61
2021/10/29 11:36:25;;;;;;;15.02;3.33;;;15.50;99.90;;;;;;5051828;28;20069;-60
2021/10/29 11:38:51;;;;;;;15.15;3.03;;;15.60;99.90;;;;;;5055927;28;20025;-61
2021/10/29 11:41:19;;;;;;;14.65;3.35;;;15.80;99.90;;;;;;5050489;28;20113;-61
2021/10/29 11:43:45;;;;;;;16.25;4.20;;;15.80;99.90;;;;;;5062038;28;20515;-60
2021/10/29 11:46:13;;;;;;;11.60;3.35;;;15.80;99.90;;;;;;5070680;28;20195;-60
2021/10/29 11:48:51;;;;;;;11.02;3.10;;;15.80;99.90;;;;;;5067543;28;20048;-61
2021/10/29 11:51:18;;;;;;;13.82;3.38;;;15.80;99.90;;;;;;5069474;28;20424;-60
2021/10/29 11:53:54;;;;;;;13.73;3.60;;;15.80;99.90;;;;;;5063434;28;20053;-61
2021/10/29 11:59:02;;;;;;;14.10;4.53;;;15.80;99.90;;;;;;5060474;28;20417;-61
2021/10/29 12:01:35;;;;;;;15.48;3.63;;;15.70;99.90;;;;;;5062663;28;20115;-60
2021/10/29 12:09:29;;;;;;;11.68;3.40;;;15.70;99.90;;;;;;5058693;28;20041;-60
2021/10/29 12:11:57;;;;;;;12.75;3.20;;;15.70;99.90;;;;;;5060064;28;20478;-61
2021/10/29 12:14:35;;;;;;;13.98;3.40;;;15.70;99.90;;;;;;5058150;28;20033;-62
2021/10/29 12:17:23;;;;;;;14.50;3.35;;;15.80;99.90;;;;;;5069632;28;20033;-60
2021/10/29 12:19:53;;;;;;;13.35;2.70;;;15.80;99.90;;;;;;5056809;28;20119;-61
2021/10/29 12:22:30;;;;;;;18.30;3.45;;;15.80;99.90;;;;;;5067416;28;20557;-61
2021/10/29 12:27:41;;;;;;;16.52;2.78;;;15.90;99.90;;;;;;5061546;28;20045;-63
2021/10/29 12:30:17;;;;;;;7.20;2.58;;;15.80;99.90;;;;;;5067821;28;20093;-65
2021/10/29 12:58:53;;;;;;;11.02;2.33;;;15.80;99.90;;;;;;5057373;28;20453;-63
2021/10/29 13:04:00;;;;;;;13.60;2.17;;;15.60;99.90;;;;;;5070015;28;20036;-61
2021/10/29 13:06:50;;;;;;;9.25;2.13;;;15.60;99.90;;;;;;5064891;28;20306;-63
2021/10/29 13:09:27;;;;;;;12.55;2.65;;;15.60;99.90;;;;;;5053691;28;20760;-63
2021/10/29 13:12:26;;;;;;;8.57;2.20;;;15.50;99.90;;;;;;5057338;28;20024;-63
2021/10/29 13:14:59;;;;;;;10.77;2.55;;;15.40;99.90;;;;;;5051744;28;20029;-62
2021/10/29 13:17:36;;;;;;;14.73;2.58;;;15.30;99.90;;;;;;5057783;28;20117;-61
2021/10/29 13:20:30;;;;;;;5.32;1.45;;;15.20;99.90;;;;;;5065242;28;20025;-63
2021/10/29 13:55:11;;;;;;;2.83;1.05;;;15.00;99.90;;;;;;5060359;28;20033;-62
2021/10/29 14:34:54;;;;;;;4.35;1.00;;;14.90;99.90;;;;;;5061166;28;20575;-62
2021/10/29 14:37:48;;;;;;;2.55;0.98;;;14.90;99.90;;;;;;5061899;28;20021;-62
2021/10/29 14:40:37;;;;;;;3.08;1.02;;;14.90;99.90;;;;;;5057146;28;20087;-62
2021/10/29 14:43:43;;;;;;;2.60;0.98;;;14.90;99.90;;;;;;5066776;28;20068;-62
2021/10/29 15:17:45;;;;;;;3.15;0.90;;;14.60;99.90;;;;;;5063167;28;20028;-60
2021/10/29 15:25:59;;;;;;;3.70;1.25;;;14.50;99.90;;;;;;5046871;28;20513;-61
2021/10/29 15:44:52;;;;;;;4.15;1.65;;;14.30;99.90;;;;;;5063886;28;20142;-60
2021/10/29 15:47:35;;;;;;;5.28;2.38;;;14.30;99.90;;;;;;5056019;28;20029;-60
2021/10/29 15:50:06;;;;;;;5.30;4.05;;;14.30;99.90;;;;;;5056273;28;20052;-62
2021/10/29 15:52:32;;;;;;;11.75;8.63;;;14.20;99.90;;;;;;5072249;28;20028;-60
2021/10/29 15:55:04;;;;;;;7.22;4.53;;;14.20;99.90;;;;;;5064704;28;20032;-61
2021/10/29 15:57:33;;;;;;;4.32;1.48;;;14.10;99.90;;;;;;5057783;28;20103;-60
2021/10/29 16:02:48;;;;;;;4.15;2.50;;;14.00;99.90;;;;;;5047442;28;20367;-62
2021/10/29 16:18:54;;;;;;;6.63;3.88;;;13.70;99.90;;;;;;5037806;28;20052;-61
2021/10/29 16:21:20;;;;;;;10.30;5.47;;;13.60;99.90;;;;;;5035392;28;20387;-61
2021/10/29 16:23:45;;;;;;;7.35;2.88;;;13.50;99.90;;;;;;5045843;28;20033;-62
2021/10/29 16:26:14;;;;;;;5.90;2.47;;;13.40;99.90;;;;;;5040483;28;20034;-62
2021/10/29 16:28:41;;;;;;;6.78;2.25;;;13.40;99.90;;;;;;5043924;28;20586;-61
2021/10/29 16:31:11;;;;;;;7.30;1.95;;;13.30;99.90;;;;;;5041952;28;20025;-61
2021/10/29 16:33:37;;;;;;;14.13;7.50;;;13.20;99.90;;;;;;5042292;28;20025;-62
2021/10/29 16:36:04;;;;;;;6.68;2.67;;;13.20;99.90;;;;;;5041394;28;20040;-63
2021/10/29 16:38:31;;;;;;;9.02;3.35;;;13.20;99.90;;;;;;5015108;28;20430;-62
2021/10/29 16:40:57;;;;;;;16.10;6.60;;;13.20;99.90;;;;;;5035153;28;20029;-62
2021/10/29 16:43:23;;;;;;;9.35;3.55;;;13.10;99.90;;;;;;5034863;28;20079;-61
2021/10/29 16:45:51;;;;;;;9.80;3.38;;;13.10;99.90;;;;;;5035589;28;20034;-62
2021/10/29 16:48:21;;;;;;;8.43;4.60;;;13.20;99.90;;;;;;5039999;28;20486;-61
2021/10/29 16:50:47;;;;;;;12.15;5.10;;;13.20;99.90;;;;;;5037387;28;20050;-62
2021/10/29 16:53:14;;;;;;;13.95;5.07;;;13.20;99.90;;;;;;5050365;28;20074;-60
2021/10/29 16:55:43;;;;;;;9.57;3.28;;;13.00;99.90;;;;;;5039226;28;20483;-61
2021/10/29 16:58:10;;;;;;;4.53;1.77;;;13.00;99.90;;;;;;5047063;28;20123;-62
2021/10/29 17:00:36;;;;;;;17.10;9.68;;;13.00;99.90;;;;;;5066382;28;20051;-61
2021/10/29 17:03:02;;;;;;;12.50;3.80;;;13.00;99.90;;;;;;5061395;28;20099;-62
2021/10/29 17:05:28;;;;;;;9.38;3.00;;;12.90;99.90;;;;;;5061430;28;20557;-61
2021/10/29 17:07:54;;;;;;;8.23;2.50;;;12.80;99.90;;;;;;5065001;28;20378;-62
2021/10/29 17:10:21;;;;;;;4.63;1.67;;;12.70;99.90;;;;;;5062679;28;20029;-61
2021/10/29 17:12:47;;;;;;;7.97;2.28;;;12.80;99.90;;;;;;5057556;28;20045;-61
2021/10/29 17:15:15;;;;;;;17.20;2.47;;;12.70;99.90;;;;;;5065234;28;20025;-61
2021/10/29 17:17:42;;;;;;;4.72;1.98;;;12.80;99.90;;;;;;5068003;28;20029;-61
2021/10/29 17:20:11;;;;;;;7.30;2.50;;;12.70;99.90;;;;;;5053565;28;20025;-60
2021/10/29 17:22:41;;;;;;;17.05;5.28;;;12.70;99.90;;;;;;5056201;28;20040;-61
2021/10/29 17:25:08;;;;;;;12.88;2.85;;;12.70;99.90;;;;;;5062723;28;20398;-62
2021/10/29 17:27:34;;;;;;;10.60;2.00;;;12.60;99.90;;;;;;5062176;28;20037;-60
2021/10/29 17:30:01;;;;;;;7.65;2.40;;;12.50;99.90;;;;;;5058522;28;20028;-62
2021/10/29 17:32:26;;;;;;;7.05;2.17;;;12.50;99.90;;;;;;5059618;28;20087;-61